createdAt,value
2019-03-04T00:01:08.762Z,59.14
2019-03-04T00:03:40.278Z,59.41
2019-03-04T00:06:09.873Z,59.41
2019-03-04T00:08:39.520Z,59.69
2019-03-04T00:11:09.088Z,59.47
2019-03-04T00:13:39.022Z,59.03
2019-03-04T00:16:08.968Z,59.03
2019-03-04T00:18:40.890Z,60.00
2019-03-04T00:21:10.865Z,59.88
2019-03-04T00:23:40.589Z,59.81
2019-03-04T00:26:10.272Z,59.90
2019-03-04T00:28:39.911Z,59.90
2019-03-04T00:31:09.538Z,60.34
2019-03-04T00:33:39.153Z,60.70
2019-03-04T00:36:08.962Z,60.84
2019-03-04T00:38:40.629Z,61.06
2019-03-04T00:41:10.028Z,61.06
2019-03-04T00:43:42.726Z,61.09
2019-03-04T00:46:13.555Z,61.04
2019-03-04T00:48:43.237Z,61.13
2019-03-04T00:51:12.952Z,61.49
2019-03-04T00:53:45.657Z,61.49
2019-03-04T00:56:15.385Z,61.94
2019-03-04T00:58:45.104Z,61.48
2019-03-04T01:01:14.953Z,61.28
2019-03-04T01:03:44.486Z,61.56
2019-03-04T01:06:13.989Z,61.56
2019-03-04T01:08:43.831Z,62.03
2019-03-04T01:11:13.544Z,62.03
2019-03-04T01:13:43.114Z,61.71
2019-03-04T01:16:14.892Z,61.87
2019-03-04T01:18:44.406Z,61.87
2019-03-04T01:21:15.643Z,62.22
2019-03-04T01:23:45.142Z,61.87
2019-03-04T01:26:14.788Z,62.52
2019-03-04T01:28:46.855Z,63.17
2019-03-04T01:31:16.539Z,62.63
2019-03-04T01:33:46.307Z,62.01
2019-03-04T01:36:17.213Z,63.44
2019-03-04T01:38:46.837Z,63.44
2019-03-04T01:41:16.500Z,64.11
2019-03-04T01:43:47.735Z,64.14
2019-03-04T01:46:17.275Z,63.84
2019-03-04T01:48:47.043Z,64.15
2019-03-04T01:51:16.587Z,63.82
2019-03-04T01:53:46.366Z,63.04
2019-03-04T01:56:16.005Z,63.04
2019-03-04T01:58:45.693Z,63.41
2019-03-04T02:01:16.709Z,63.67
2019-03-04T02:03:46.317Z,64.33
2019-03-04T02:06:15.904Z,64.33
2019-03-04T02:08:46.769Z,63.46
2019-03-04T02:11:19.002Z,63.52
2019-03-04T02:13:48.708Z,63.67
2019-03-04T02:16:18.827Z,63.08
2019-03-04T02:18:48.418Z,63.56
2019-03-04T02:21:18.050Z,63.78
2019-03-04T02:23:47.791Z,63.35
2019-03-04T02:26:32.382Z,63.83
2019-03-04T02:29:01.971Z,63.83
2019-03-04T02:31:31.621Z,63.22
2019-03-04T02:34:01.284Z,64.25
2019-03-04T02:36:30.935Z,64.25
2019-03-04T02:39:02.936Z,64.17
2019-03-04T02:41:32.589Z,65.49
2019-03-04T02:44:02.084Z,65.49
2019-03-04T02:46:31.708Z,65.48
2019-03-04T02:49:01.304Z,65.73
2019-03-04T02:51:31.034Z,64.99
2019-03-04T02:54:00.695Z,64.99
2019-03-04T02:56:30.333Z,64.49
2019-03-04T02:59:00.003Z,65.71
2019-03-04T03:01:29.767Z,65.72
2019-03-04T03:03:59.274Z,66.05
2019-03-04T03:06:29.025Z,66.35
2019-03-04T03:08:58.747Z,66.35
2019-03-04T03:11:28.533Z,66.45
2019-03-04T03:14:00.514Z,66.38
2019-03-04T03:16:30.156Z,66.01
2019-03-04T03:18:59.721Z,65.24
2019-03-04T03:21:31.646Z,65.05
2019-03-04T03:24:01.299Z,64.33
2019-03-04T03:26:30.926Z,64.33
2019-03-04T03:29:00.568Z,65.61
2019-03-04T03:31:30.289Z,66.29
2019-03-04T03:33:59.915Z,66.29
2019-03-04T03:36:31.755Z,65.72
2019-03-04T03:39:01.557Z,65.57
2019-03-04T03:41:31.434Z,65.32
2019-03-04T03:44:01.190Z,65.32
2019-03-04T03:46:30.883Z,64.78
2019-03-04T03:49:02.147Z,65.23
2019-03-04T03:51:33.956Z,65.23
2019-03-04T03:54:03.433Z,65.29
2019-03-04T03:56:33.145Z,65.17
2019-03-04T03:59:03.023Z,65.17
2019-03-04T04:01:32.587Z,65.83
2019-03-04T04:04:03.808Z,65.83
2019-03-04T04:06:35.596Z,66.17
2019-03-04T04:09:06.194Z,66.17
2019-03-04T04:11:35.913Z,65.98
2019-03-04T04:14:05.787Z,66.34
2019-03-04T04:16:35.466Z,66.04
2019-03-04T04:19:06.435Z,66.39
2019-03-04T04:21:38.231Z,66.01
2019-03-04T04:24:07.783Z,65.88
2019-03-04T04:26:37.269Z,65.88
2019-03-04T04:29:13.862Z,65.02
2019-03-04T04:33:56.943Z,66.30
2019-03-04T04:36:26.566Z,65.30
2019-03-04T04:38:56.193Z,65.86
2019-03-04T04:41:25.776Z,65.86
2019-03-04T04:43:55.394Z,65.93
2019-03-04T04:47:03.814Z,65.93
2019-03-04T04:49:34.458Z,65.45
2019-03-04T04:52:04.196Z,65.49
2019-03-04T04:54:34.114Z,65.33
2019-03-04T04:57:04.757Z,65.33
2019-03-04T04:59:36.347Z,66.13
2019-03-04T05:02:07.804Z,64.49
2019-03-04T05:04:38.205Z,64.45
2019-03-04T05:07:07.768Z,64.45
2019-03-04T05:09:37.545Z,65.20
2019-03-04T05:12:07.060Z,65.28
2019-03-04T05:14:36.809Z,65.28
2019-03-04T05:17:06.606Z,65.54
2019-03-04T05:19:36.247Z,65.60
2019-03-04T05:22:05.964Z,65.75
2019-03-04T05:24:36.767Z,65.51
2019-03-04T05:27:06.397Z,65.28
2019-03-04T05:29:35.875Z,65.30
2019-03-04T05:32:05.752Z,64.74
2019-03-04T05:34:38.243Z,64.74
2019-03-04T05:37:07.985Z,64.92
2019-03-04T05:39:37.628Z,63.59
2019-03-04T05:42:07.171Z,63.59
2019-03-04T05:44:38.117Z,63.59
2019-03-04T05:47:07.598Z,63.02
2019-03-04T05:49:37.350Z,63.10
2019-03-04T05:52:07.130Z,63.10
2019-03-04T05:54:36.663Z,63.43
2019-03-04T05:57:06.334Z,63.43
2019-03-04T05:59:38.029Z,63.21
2019-03-04T06:02:11.368Z,63.16
2019-03-04T06:04:42.429Z,63.06
2019-03-04T06:07:43.216Z,62.31
2019-03-04T06:10:14.526Z,62.31
2019-03-04T06:12:46.218Z,62.40
2019-03-04T06:15:17.608Z,62.00
2019-03-04T06:17:47.306Z,61.09
2019-03-04T06:20:17.773Z,61.30
2019-03-04T06:22:48.658Z,59.62
2019-03-04T06:25:21.719Z,56.42
2019-03-04T06:27:51.364Z,54.21
2019-03-04T06:30:22.605Z,51.94
2019-03-04T06:32:52.360Z,49.99
2019-03-04T06:35:22.045Z,48.84
2019-03-04T06:37:51.679Z,46.75
2019-03-04T06:40:21.526Z,43.24
2019-03-04T06:42:51.171Z,39.12
2019-03-04T06:45:21.060Z,35.33
2019-03-04T06:47:50.927Z,32.09
2019-03-04T06:50:48.804Z,28.88
2019-03-04T06:54:06.275Z,27.29
2019-03-04T06:56:39.430Z,25.61
2019-03-04T06:59:36.187Z,23.06
2019-03-04T07:02:10.123Z,24.41
2019-03-04T07:05:06.564Z,23.16
2019-03-04T07:07:39.394Z,21.95
2019-03-04T07:10:10.145Z,21.88
2019-03-04T07:12:39.880Z,20.18
2019-03-04T07:15:09.905Z,19.90
2019-03-04T07:17:39.631Z,19.26
2019-03-04T07:20:12.049Z,18.26
2019-03-04T07:22:41.688Z,17.85
2019-03-04T07:25:12.537Z,19.03
2019-03-04T07:27:44.338Z,17.83
2019-03-04T07:30:14.617Z,16.69
2019-03-04T07:32:44.357Z,16.68
2019-03-04T07:35:15.177Z,16.01
2019-03-04T07:37:44.844Z,15.37
2019-03-04T07:40:16.395Z,14.91
2019-03-04T07:42:46.206Z,13.70
2019-03-04T07:45:15.994Z,13.58
2019-03-04T07:47:45.525Z,13.32
2019-03-04T07:50:16.790Z,12.76
2019-03-04T07:52:47.767Z,12.43
2019-03-04T07:55:19.940Z,12.97
2019-03-04T07:57:49.431Z,12.33
2019-03-04T08:00:20.385Z,12.44
2019-03-04T08:02:52.170Z,12.15
2019-03-04T08:05:21.809Z,11.55
2019-03-04T08:07:52.390Z,11.01
2019-03-04T08:10:50.096Z,11.50
2019-03-04T08:13:27.545Z,10.96
2019-03-04T08:15:58.442Z,11.55
2019-03-04T08:18:28.131Z,12.10
2019-03-04T08:21:01.541Z,11.64
2019-03-04T08:23:31.181Z,11.04
2019-03-04T08:26:03.506Z,11.33
2019-03-04T08:28:33.011Z,11.30
2019-03-04T08:31:02.606Z,11.07
2019-03-04T08:33:33.984Z,11.28
2019-03-04T08:36:03.627Z,11.97
2019-03-04T08:38:36.483Z,11.89
2019-03-04T08:41:06.287Z,12.52
2019-03-04T08:43:35.991Z,11.28
2019-03-04T08:46:07.056Z,10.51
2019-03-04T08:48:36.771Z,10.58
2019-03-04T08:51:06.302Z,10.74
2019-03-04T08:53:35.878Z,11.10
2019-03-04T08:56:06.677Z,10.48
2019-03-04T08:58:37.694Z,10.34
2019-03-04T09:01:07.506Z,9.90
2019-03-04T09:03:37.349Z,9.77
2019-03-04T09:06:07.114Z,9.02
2019-03-04T09:08:36.639Z,9.69
2019-03-04T09:11:06.629Z,9.71
2019-03-04T09:13:37.522Z,9.39
2019-03-04T09:16:07.247Z,9.40
2019-03-04T09:18:37.835Z,9.31
2019-03-04T09:21:07.634Z,9.50
2019-03-04T09:23:37.154Z,9.18
2019-03-04T09:26:09.290Z,9.66
2019-03-04T09:28:41.396Z,9.00
2019-03-04T09:31:11.091Z,8.71
2019-03-04T09:33:40.666Z,8.52
2019-03-04T09:36:12.231Z,8.37
2019-03-04T09:38:41.986Z,7.98
2019-03-04T09:41:11.744Z,8.38
2019-03-04T09:43:41.415Z,8.53
2019-03-04T09:46:11.029Z,8.73
2019-03-04T09:48:45.273Z,8.37
2019-03-04T09:51:24.012Z,8.64
2019-03-04T09:53:47.796Z,8.12
2019-03-04T09:56:17.411Z,8.46
2019-03-04T09:58:47.208Z,8.94
2019-03-04T10:01:30.072Z,8.84
2019-03-04T10:04:19.853Z,9.07
2019-03-04T10:07:02.599Z,9.34
2019-03-04T10:10:05.781Z,9.26
2019-03-04T10:13:14.916Z,8.75
2019-03-04T10:16:18.680Z,9.01
2019-03-04T10:19:18.839Z,9.43
2019-03-04T10:22:05.919Z,10.17
2019-03-04T10:25:25.330Z,9.59
2019-03-04T10:28:35.886Z,8.87
2019-03-04T10:31:47.616Z,8.58
2019-03-04T10:34:55.174Z,8.75
2019-03-04T10:38:01.292Z,8.69
2019-03-04T10:41:04.861Z,8.39
2019-03-04T10:44:00.897Z,7.68
2019-03-04T10:46:57.804Z,8.52
2019-03-04T10:49:32.035Z,8.83
2019-03-04T10:52:04.113Z,8.39
2019-03-04T10:54:33.672Z,8.16
2019-03-04T10:57:03.437Z,8.20
2019-03-04T10:59:33.086Z,8.21
2019-03-04T11:02:04.763Z,7.56
2019-03-04T11:04:37.518Z,7.70
2019-03-04T11:07:07.243Z,7.57
2019-03-04T11:09:36.907Z,7.51
2019-03-04T11:12:06.737Z,8.00
2019-03-04T11:14:40.198Z,7.30
2019-03-04T11:17:10.955Z,7.42
2019-03-04T11:19:40.707Z,7.81
2019-03-04T11:22:10.555Z,8.33
2019-03-04T11:24:40.265Z,7.80
2019-03-04T11:27:10.093Z,7.73
2019-03-04T11:29:39.857Z,7.83
2019-03-04T11:32:11.762Z,7.45
2019-03-04T11:34:42.779Z,8.11
2019-03-04T11:37:12.593Z,8.22
2019-03-04T11:39:59.981Z,10.31
2019-03-04T11:42:29.607Z,10.53
2019-03-04T11:44:59.549Z,10.11
2019-03-04T11:47:29.221Z,10.58
2019-03-04T11:50:00.336Z,10.46
2019-03-04T11:52:31.308Z,10.33
2019-03-04T11:55:02.025Z,12.20
2019-03-04T11:57:31.617Z,14.29
2019-03-04T12:00:01.299Z,15.98
2019-03-04T12:02:38.549Z,17.96
2019-03-04T12:05:05.011Z,17.83
2019-03-04T12:07:34.608Z,18.42
2019-03-04T12:10:04.833Z,19.92
2019-03-04T12:12:34.558Z,20.10
2019-03-04T12:15:07.066Z,21.67
2019-03-04T12:17:36.901Z,21.19
2019-03-04T12:20:07.601Z,22.46
2019-03-04T12:22:37.275Z,22.07
2019-03-04T12:25:08.180Z,23.35
2019-03-04T12:27:38.077Z,22.48
2019-03-04T12:30:10.080Z,22.43
2019-03-04T12:32:40.693Z,23.22
2019-03-04T12:35:14.480Z,21.70
2019-03-04T12:37:44.284Z,23.00
2019-03-04T12:40:15.079Z,22.47
2019-03-04T12:42:46.309Z,23.66
2019-03-04T12:45:17.717Z,22.93
2019-03-04T12:47:47.332Z,23.38
2019-03-04T12:50:22.904Z,23.77
2019-03-04T12:52:54.972Z,23.87
2019-03-04T12:55:24.612Z,23.94
2019-03-04T12:57:54.188Z,24.01
2019-03-04T13:00:24.168Z,23.76
2019-03-04T13:02:57.442Z,23.43
2019-03-04T13:05:27.067Z,24.53
2019-03-04T13:07:56.810Z,24.57
2019-03-04T13:10:27.758Z,25.01
2019-03-04T13:13:01.950Z,24.38
2019-03-04T13:15:31.796Z,24.84
2019-03-04T13:18:02.417Z,25.28
2019-03-04T13:20:32.270Z,24.26
2019-03-04T13:23:01.925Z,25.15
2019-03-04T13:25:32.761Z,24.38
2019-03-04T13:28:08.301Z,23.79
2019-03-04T13:30:36.029Z,24.91
2019-03-04T13:33:05.806Z,25.34
2019-03-04T13:35:35.575Z,25.41
2019-03-04T13:38:05.205Z,25.03
2019-03-04T13:40:36.428Z,25.54
2019-03-04T13:43:08.280Z,25.31
2019-03-04T13:45:37.843Z,25.36
2019-03-04T13:48:13.477Z,25.91
2019-03-04T13:50:43.323Z,25.34
2019-03-04T13:53:15.315Z,26.11
2019-03-04T13:55:44.951Z,26.94
2019-03-04T13:58:17.164Z,25.91
2019-03-04T14:00:46.870Z,25.63
2019-03-04T14:03:16.453Z,25.58
2019-03-04T14:05:48.085Z,26.42
2019-03-04T14:08:17.790Z,26.51
2019-03-04T14:10:49.015Z,26.46
2019-03-04T14:13:18.822Z,25.91
2019-03-04T14:15:48.633Z,25.61
2019-03-04T14:18:18.196Z,26.53
2019-03-04T14:20:47.823Z,25.75
2019-03-04T14:23:19.753Z,25.57
2019-03-04T14:25:49.961Z,26.08
2019-03-04T14:28:19.676Z,26.32
2019-03-04T14:30:49.393Z,26.08
2019-03-04T14:33:21.619Z,26.14
2019-03-04T14:35:53.146Z,25.75
2019-03-04T14:38:22.809Z,25.75
2019-03-04T14:40:54.318Z,26.23
2019-03-04T14:43:26.286Z,26.56
2019-03-04T14:45:56.030Z,26.10
2019-03-04T14:48:30.567Z,25.35
2019-03-04T14:51:00.407Z,26.45
2019-03-04T14:53:30.122Z,25.98
2019-03-04T14:56:01.412Z,26.22
2019-03-04T14:58:32.759Z,26.90
2019-03-04T15:01:02.810Z,26.43
2019-03-04T15:03:35.196Z,27.27
2019-03-04T15:06:08.216Z,25.17
2019-03-04T15:08:38.249Z,24.93
2019-03-04T15:11:07.886Z,25.25
2019-03-04T15:13:39.496Z,24.71
2019-03-04T15:16:10.057Z,24.75
2019-03-04T15:18:41.462Z,24.72
2019-03-04T15:21:13.090Z,24.62
2019-03-04T15:23:46.823Z,25.33
2019-03-04T15:26:23.215Z,24.51
2019-03-04T15:28:58.974Z,24.64
2019-03-04T15:31:30.620Z,24.59
2019-03-04T15:34:01.354Z,24.58
2019-03-04T15:36:35.882Z,24.86
2019-03-04T15:39:22.268Z,24.77
2019-03-04T15:41:44.124Z,24.76
2019-03-04T15:44:16.818Z,25.20
2019-03-04T15:46:46.560Z,24.65
2019-03-04T15:49:17.732Z,24.99
2019-03-04T15:51:48.415Z,25.12
2019-03-04T15:54:18.767Z,25.07
2019-03-04T15:56:49.696Z,25.11
2019-03-04T15:59:22.090Z,25.89
2019-03-04T16:01:52.182Z,26.41
2019-03-04T16:04:23.265Z,26.85
2019-03-04T16:06:56.254Z,26.87
2019-03-04T16:09:27.897Z,27.00
2019-03-04T16:12:03.871Z,27.39
2019-03-04T16:14:34.882Z,27.69
2019-03-04T16:17:05.620Z,28.38
2019-03-04T16:19:36.542Z,28.48
2019-03-04T16:22:07.414Z,28.65
2019-03-04T16:24:37.990Z,28.80
2019-03-04T16:27:15.675Z,29.18
2019-03-04T16:29:48.474Z,29.57
2019-03-04T16:32:18.289Z,30.14
2019-03-04T16:34:48.801Z,30.41
2019-03-04T16:37:22.207Z,30.54
2019-03-04T16:39:52.146Z,30.44
2019-03-04T16:42:23.638Z,30.69
2019-03-04T16:44:53.654Z,30.87
2019-03-04T16:47:23.382Z,31.06
2019-03-04T16:49:55.408Z,31.27
2019-03-04T16:52:28.595Z,31.69
2019-03-04T16:54:58.765Z,31.68
2019-03-04T16:57:29.945Z,31.83
2019-03-04T17:00:04.191Z,32.67
2019-03-04T17:02:37.336Z,31.87
2019-03-04T17:05:08.828Z,32.24
2019-03-04T17:07:38.910Z,32.15
2019-03-04T17:10:13.945Z,32.49
2019-03-04T17:12:45.193Z,32.93
2019-03-04T17:15:17.716Z,33.02
2019-03-04T17:17:47.806Z,33.80
2019-03-04T17:20:18.298Z,33.57
2019-03-04T17:22:48.124Z,33.69
2019-03-04T17:25:18.306Z,33.48
2019-03-04T17:27:47.996Z,33.73
2019-03-04T17:30:19.915Z,33.63
2019-03-04T17:32:50.937Z,33.60
2019-03-04T17:35:22.966Z,33.89
2019-03-04T17:37:52.708Z,33.90
2019-03-04T17:40:22.540Z,33.98
2019-03-04T17:42:52.376Z,34.02
2019-03-04T17:45:24.173Z,33.91
2019-03-04T17:47:53.571Z,34.08
2019-03-04T17:50:30.261Z,33.93
2019-03-04T17:53:00.000Z,34.02
2019-03-04T17:55:29.718Z,34.22
2019-03-04T17:57:59.534Z,34.08
2019-03-04T18:00:29.803Z,34.45
2019-03-04T18:02:59.619Z,34.52
2019-03-04T18:05:29.269Z,34.55
2019-03-04T18:07:58.955Z,34.61
2019-03-04T18:10:28.808Z,34.82
2019-03-04T18:13:01.180Z,34.85
2019-03-04T18:15:31.114Z,35.15
2019-03-04T18:18:00.829Z,35.14
2019-03-04T18:20:34.497Z,35.37
2019-03-04T18:23:03.982Z,36.00
2019-03-04T18:25:45.772Z,36.28
2019-03-04T18:28:27.827Z,35.74
2019-03-04T18:31:05.898Z,35.70
2019-03-04T18:34:25.493Z,35.55
2019-03-04T18:37:23.442Z,36.04
2019-03-04T18:40:22.549Z,36.12
2019-03-04T18:43:29.542Z,36.28
2019-03-04T18:46:34.265Z,36.62
2019-03-04T18:49:04.201Z,37.15
2019-03-04T18:51:35.225Z,37.17
2019-03-04T18:54:23.914Z,37.44
2019-03-04T18:56:53.649Z,37.89
2019-03-04T18:59:23.490Z,38.02
2019-03-04T19:01:54.459Z,38.14
2019-03-04T19:04:25.285Z,38.59
2019-03-04T19:06:55.099Z,38.93
2019-03-04T19:09:27.239Z,38.92
2019-03-04T19:11:56.995Z,39.20
2019-03-04T19:14:26.866Z,39.23
2019-03-04T19:16:56.795Z,38.88
2019-03-04T19:19:26.687Z,39.26
2019-03-04T19:21:57.966Z,40.19
2019-03-04T19:24:27.794Z,40.24
2019-03-04T19:26:57.765Z,39.88
2019-03-04T19:29:27.585Z,39.01
2019-03-04T19:31:57.200Z,39.17
2019-03-04T19:34:27.060Z,40.00
2019-03-04T19:36:56.752Z,39.36
2019-03-04T19:39:26.407Z,39.08
2019-03-04T19:41:56.216Z,38.80
2019-03-04T19:44:26.268Z,39.83
2019-03-04T19:46:56.129Z,40.01
2019-03-04T19:49:26.108Z,39.72
2019-03-04T19:51:55.952Z,39.40
2019-03-04T19:54:26.079Z,39.23
2019-03-04T19:56:56.122Z,39.36
2019-03-04T19:59:25.868Z,39.24
2019-03-04T20:01:55.795Z,39.32
2019-03-04T20:04:25.532Z,39.71
2019-03-04T20:06:56.380Z,39.87
2019-03-04T20:09:26.335Z,40.17
2019-03-04T20:11:56.156Z,39.94
2019-03-04T20:14:26.021Z,39.95
2019-03-04T20:16:55.757Z,40.27
2019-03-04T20:19:25.604Z,41.19
2019-03-04T20:21:55.377Z,40.90
2019-03-04T20:24:25.099Z,40.53
2019-03-04T20:26:54.640Z,41.61
2019-03-04T20:29:24.495Z,41.40
2019-03-04T20:31:54.305Z,40.93
2019-03-04T20:34:24.037Z,41.37
2019-03-04T20:36:55.046Z,41.13
2019-03-04T20:39:25.024Z,41.35
2019-03-04T20:41:54.780Z,41.31
2019-03-04T20:44:24.503Z,42.44
2019-03-04T20:46:54.519Z,41.40
2019-03-04T20:49:24.119Z,42.29
2019-03-04T20:51:53.886Z,42.41
2019-03-04T20:54:23.785Z,42.53
2019-03-04T20:59:20.191Z,42.54
2019-03-04T21:01:49.815Z,43.53
2019-03-04T21:04:19.657Z,43.43
2019-03-04T21:06:49.225Z,43.23
2019-03-04T21:09:19.436Z,43.50
2019-03-04T21:11:49.106Z,43.05
2019-03-04T21:14:18.607Z,43.21
2019-03-04T21:16:48.253Z,43.30
2019-03-04T21:19:20.321Z,43.59
2019-03-04T21:21:50.064Z,43.61
2019-03-04T21:24:19.795Z,43.54
2019-03-04T21:26:50.732Z,43.94
2019-03-04T21:30:13.704Z,44.08
2019-03-04T21:33:17.022Z,44.00
2019-03-04T21:36:10.345Z,44.03
2019-03-04T21:38:41.433Z,44.16
2019-03-04T21:41:30.527Z,44.49
2019-03-04T21:44:27.863Z,44.17
2019-03-04T21:47:22.968Z,44.63
2019-03-04T21:49:54.594Z,45.24
2019-03-04T21:52:48.141Z,46.09
2019-03-04T21:55:29.633Z,45.03
2019-03-04T21:57:59.904Z,45.59
2019-03-04T22:00:36.089Z,45.77
2019-03-04T22:03:15.123Z,45.98
2019-03-04T22:05:50.355Z,46.64
2019-03-04T22:08:16.395Z,46.64
2019-03-04T22:10:46.110Z,46.99
2019-03-04T22:13:15.908Z,46.70
2019-03-04T22:15:45.546Z,46.70
2019-03-04T22:18:15.260Z,46.89
2019-03-04T22:20:45.249Z,46.43
2019-03-04T22:23:15.146Z,46.88
2019-03-04T22:25:44.909Z,46.62
2019-03-04T22:28:16.330Z,47.01
2019-03-04T22:30:45.991Z,46.73
2019-03-04T22:33:15.758Z,45.96
2019-03-04T22:35:45.149Z,46.06
2019-03-04T22:38:14.801Z,47.07
2019-03-04T22:40:44.482Z,47.20
2019-03-04T22:43:14.273Z,47.20
2019-03-04T22:45:43.942Z,46.49
2019-03-04T22:48:13.825Z,46.41
2019-03-04T22:50:43.462Z,47.02
2019-03-04T22:53:13.141Z,47.46
2019-03-04T22:55:42.906Z,47.44
2019-03-04T22:58:12.553Z,47.37
2019-03-04T23:01:29.207Z,47.52
2019-03-04T23:04:39.378Z,47.40
2019-03-04T23:07:11.312Z,48.27
2019-03-04T23:10:26.229Z,48.22
2019-03-04T23:13:00.210Z,48.22
2019-03-04T23:15:30.089Z,47.22
2019-03-04T23:17:59.658Z,47.35
2019-03-04T23:20:29.226Z,48.17
2019-03-04T23:22:59.003Z,48.17
2019-03-04T23:25:28.677Z,49.33
2019-03-04T23:27:58.138Z,48.22
2019-03-04T23:30:27.919Z,48.13
2019-03-04T23:32:57.705Z,48.26
2019-03-04T23:35:27.474Z,48.71
2019-03-04T23:37:57.205Z,48.68
2019-03-04T23:40:26.692Z,48.84
2019-03-04T23:42:56.329Z,48.69
2019-03-04T23:45:25.925Z,49.08
2019-03-04T23:47:55.764Z,49.07
2019-03-04T23:50:25.532Z,48.88
2019-03-04T23:52:55.160Z,48.72
2019-03-04T23:55:24.945Z,48.75
2019-03-04T23:57:54.533Z,49.48
